createdAt,value
2022-08-23T00:00:44.314Z,75.94
2022-08-23T00:03:47.178Z,77.07
2022-08-23T00:06:49.751Z,76.03
2022-08-23T00:09:51.859Z,76.23
2022-08-23T00:12:54.038Z,77.10
2022-08-23T00:15:56.214Z,79.49
2022-08-23T00:18:58.382Z,80.74
2022-08-23T00:22:00.513Z,80.57
2022-08-23T00:25:02.666Z,78.86
2022-08-23T00:28:04.910Z,79.53
2022-08-23T00:31:14.773Z,78.45
2022-08-23T00:34:17.220Z,78.31
2022-08-23T00:37:19.796Z,77.98
2022-08-23T00:40:21.999Z,77.59
2022-08-23T00:43:55.739Z,79.53
2022-08-23T00:47:16.569Z,81.29
2022-08-23T00:50:29.804Z,82.09
2022-08-23T00:53:34.853Z,81.37
2022-08-23T00:56:37.120Z,81.20
2022-08-23T00:59:39.430Z,81.74
2022-08-23T01:02:42.718Z,80.85
2022-08-23T01:06:07.590Z,81.27
2022-08-23T01:09:13.763Z,79.63
2022-08-23T01:12:32.713Z,79.81
2022-08-23T01:15:41.703Z,78.44
2022-08-23T01:18:43.916Z,76.36
2022-08-23T01:21:53.127Z,77.87
2022-08-23T01:25:06.865Z,78.71
2022-08-23T01:28:13.683Z,80.33
2022-08-23T01:31:16.080Z,79.38
2022-08-23T01:34:18.364Z,80.04
2022-08-23T01:37:21.047Z,79.48
2022-08-23T01:40:24.158Z,81.20
2022-08-23T01:43:26.635Z,81.34
2022-08-23T01:46:29.854Z,79.85
2022-08-23T01:49:33.310Z,77.33
2022-08-23T01:52:36.893Z,76.29
2022-08-23T01:55:41.030Z,75.67
2022-08-23T01:58:43.164Z,76.88
2022-08-23T02:01:47.644Z,77.38
2022-08-23T02:04:50.474Z,79.29
2022-08-23T02:07:53.027Z,79.26
2022-08-23T02:10:55.183Z,80.20
2022-08-23T02:13:58.986Z,80.67
2022-08-23T02:17:07.206Z,80.47
2022-08-23T02:20:09.750Z,80.79
2022-08-23T02:23:12.118Z,80.81
2022-08-23T02:26:14.698Z,81.74
2022-08-23T02:29:21.446Z,81.14
2022-08-23T02:32:27.109Z,80.69
2022-08-23T02:35:29.930Z,80.63
2022-08-23T02:38:32.078Z,79.39
2022-08-23T02:41:36.191Z,79.97
2022-08-23T02:44:38.570Z,78.91
2022-08-23T02:47:41.433Z,78.73
2022-08-23T02:50:50.474Z,78.85
2022-08-23T02:53:53.774Z,78.59
2022-08-23T02:56:58.119Z,81.09
2022-08-23T03:00:00.201Z,80.30
2022-08-23T03:03:02.318Z,79.86
2022-08-23T03:06:24.505Z,79.32
2022-08-23T03:09:27.084Z,80.04
2022-08-23T03:12:29.150Z,77.96
2022-08-23T03:15:31.988Z,76.29
2022-08-23T03:18:37.859Z,73.18
2022-08-23T03:21:40.043Z,72.43
2022-08-23T03:24:46.753Z,74.82
2022-08-23T03:27:49.122Z,74.63
2022-08-23T03:30:51.603Z,73.75
2022-08-23T03:33:53.954Z,72.02
2022-08-23T03:36:56.339Z,73.14
2022-08-23T03:39:58.947Z,73.83
2022-08-23T03:43:01.414Z,70.81
2022-08-23T03:46:05.933Z,71.01
2022-08-23T03:49:09.290Z,71.39
2022-08-23T03:52:20.754Z,73.61
2022-08-23T03:55:23.047Z,74.36
2022-08-23T03:58:29.485Z,72.95
2022-08-23T04:01:31.603Z,73.58
2022-08-23T04:04:34.271Z,72.69
2022-08-23T04:07:51.394Z,73.74
2022-08-23T04:10:56.586Z,72.09
2022-08-23T04:13:59.307Z,71.01
2022-08-23T04:17:01.536Z,73.32
2022-08-23T04:20:05.251Z,72.33
2022-08-23T04:23:09.840Z,72.70
2022-08-23T04:26:25.164Z,72.93
2022-08-23T04:29:34.506Z,72.93
2022-08-23T04:32:37.707Z,71.85
2022-08-23T04:35:41.495Z,71.56
2022-08-23T04:38:44.651Z,72.93
2022-08-23T04:42:08.809Z,73.35
2022-08-23T04:45:14.213Z,71.47
2022-08-23T04:48:20.119Z,71.82
2022-08-23T04:51:24.558Z,71.78
2022-08-23T04:54:27.009Z,73.95
2022-08-23T04:57:57.150Z,74.35
2022-08-23T05:01:07.829Z,72.48
2022-08-23T05:04:10.768Z,72.31
2022-08-23T05:07:15.599Z,71.32
2022-08-23T05:10:18.490Z,70.16
2022-08-23T05:13:24.150Z,70.29
2022-08-23T05:16:26.479Z,70.42
2022-08-23T05:19:44.191Z,70.99
2022-08-23T05:22:49.975Z,70.97
2022-08-23T05:25:55.088Z,71.24
2022-08-23T05:29:04.094Z,70.29
2022-08-23T05:32:11.970Z,72.96
2022-08-23T05:35:14.284Z,74.10
2022-08-23T05:38:20.934Z,75.89
2022-08-23T05:41:27.214Z,75.09
2022-08-23T05:44:42.019Z,73.75
2022-08-23T05:47:46.454Z,70.89
2022-08-23T05:51:14.459Z,71.59
2022-08-23T05:54:17.155Z,71.45
2022-08-23T05:57:23.665Z,70.52
2022-08-23T06:00:37.229Z,68.68
2022-08-23T06:03:43.076Z,68.50
2022-08-23T06:06:45.332Z,69.47
2022-08-23T06:09:47.563Z,69.19
2022-08-23T06:12:49.855Z,68.08
2022-08-23T06:15:51.952Z,69.23
2022-08-23T06:18:54.999Z,68.07
2022-08-23T06:22:15.482Z,67.28
2022-08-23T06:25:18.011Z,69.58
2022-08-23T06:28:29.328Z,70.42
2022-08-23T06:31:47.730Z,68.18
2022-08-23T06:35:31.397Z,68.47
2022-08-23T06:38:47.439Z,70.89
2022-08-23T06:42:36.388Z,70.56
2022-08-23T06:45:37.727Z,70.16
2022-08-23T06:48:40.497Z,67.70
2022-08-23T06:51:46.008Z,66.02
2022-08-23T06:54:53.272Z,64.91
2022-08-23T06:58:18.865Z,65.09
2022-08-23T07:01:56.813Z,67.34
2022-08-23T07:05:21.722Z,66.42
2022-08-23T07:08:46.982Z,69.37
2022-08-23T07:11:49.300Z,69.17
2022-08-23T07:14:51.443Z,69.81
2022-08-23T07:17:54.035Z,69.01
2022-08-23T07:20:58.732Z,68.93
2022-08-23T07:24:01.259Z,69.89
2022-08-23T07:27:08.637Z,68.23
2022-08-23T07:30:17.354Z,67.05
2022-08-23T07:33:22.592Z,67.16
2022-08-23T07:36:42.906Z,67.17
2022-08-23T07:39:46.035Z,66.49
2022-08-23T07:42:48.657Z,67.18
2022-08-23T07:45:51.692Z,68.07
2022-08-23T07:48:55.212Z,65.58
2022-08-23T07:52:18.934Z,64.42
2022-08-23T07:55:21.417Z,65.11
2022-08-23T07:58:56.049Z,63.74
2022-08-23T08:02:08.870Z,66.24
2022-08-23T08:05:11.826Z,66.92
2022-08-23T08:08:14.739Z,66.50
2022-08-23T08:11:20.073Z,67.17
2022-08-23T08:14:25.144Z,65.76
2022-08-23T08:17:31.004Z,62.84
2022-08-23T08:20:49.354Z,64.32
2022-08-23T08:24:13.519Z,65.56
2022-08-23T08:27:22.188Z,65.90
2022-08-23T08:30:24.339Z,67.26
2022-08-23T08:33:30.707Z,65.67
2022-08-23T08:36:43.959Z,64.12
2022-08-23T08:39:52.256Z,64.21
2022-08-23T08:43:20.593Z,63.81
2022-08-23T08:46:45.336Z,63.98
2022-08-23T08:50:05.710Z,63.86
2022-08-23T08:53:16.320Z,62.01
2022-08-23T08:56:38.918Z,62.63
2022-08-23T09:00:25.982Z,63.92
2022-08-23T09:03:32.807Z,64.47
2022-08-23T09:06:55.047Z,64.20
2022-08-23T09:10:43.478Z,63.33
2022-08-23T09:14:01.262Z,62.94
2022-08-23T09:17:50.839Z,61.68
2022-08-23T09:20:55.023Z,61.10
2022-08-23T09:24:01.015Z,62.68
2022-08-23T09:27:23.382Z,62.91
2022-08-23T09:30:55.408Z,62.07
2022-08-23T09:33:59.511Z,59.79
2022-08-23T09:37:23.349Z,60.48
2022-08-23T09:40:38.987Z,59.18
2022-08-23T09:43:48.220Z,59.15
2022-08-23T09:46:54.455Z,57.50
2022-08-23T09:49:56.771Z,56.90
2022-08-23T09:53:29.119Z,56.23
2022-08-23T09:56:41.525Z,55.76
2022-08-23T09:59:47.959Z,55.42
2022-08-23T10:02:58.071Z,55.73
2022-08-23T10:06:03.783Z,57.87
2022-08-23T10:09:09.851Z,55.74
2022-08-23T10:12:15.423Z,54.22
2022-08-23T10:15:18.818Z,56.67
2022-08-23T10:18:51.269Z,53.58
2022-08-23T10:22:23.849Z,52.46
2022-08-23T10:25:58.765Z,51.01
2022-08-23T10:29:41.046Z,51.64
2022-08-23T10:32:57.217Z,51.63
2022-08-23T10:36:16.761Z,52.22
2022-08-23T10:39:30.064Z,51.48
2022-08-23T10:43:07.550Z,50.86
2022-08-23T10:46:10.809Z,50.53
2022-08-23T10:49:13.168Z,51.95
2022-08-23T10:52:39.126Z,52.88
2022-08-23T10:56:07.583Z,50.93
2022-08-23T10:59:20.844Z,51.74
2022-08-23T11:02:48.817Z,52.35
2022-08-23T11:06:37.163Z,54.12
2022-08-23T11:09:58.345Z,55.90
2022-08-23T11:13:20.838Z,56.09
2022-08-23T11:16:31.158Z,54.27
2022-08-23T11:19:58.322Z,52.53
2022-08-23T11:23:04.904Z,53.90
2022-08-23T11:26:11.505Z,55.74
2022-08-23T11:29:22.471Z,55.47
2022-08-23T11:32:39.007Z,54.57
2022-08-23T11:36:09.264Z,52.93
2022-08-23T11:39:15.784Z,52.00
2022-08-23T11:42:39.782Z,51.69
2022-08-23T11:45:46.747Z,52.92
2022-08-23T11:49:30.146Z,53.39
2022-08-23T11:52:52.371Z,49.09
2022-08-23T11:56:12.952Z,47.69
2022-08-23T11:59:49.271Z,51.71
2022-08-23T12:03:02.584Z,51.61
2022-08-23T12:06:09.815Z,53.79
2022-08-23T12:09:21.093Z,53.42
2022-08-23T12:12:37.640Z,53.75
2022-08-23T12:16:16.637Z,54.43
2022-08-23T12:19:25.239Z,54.05
2022-08-23T12:22:52.845Z,54.94
2022-08-23T12:26:09.578Z,56.81
2022-08-23T12:29:44.915Z,57.82
2022-08-23T12:33:29.050Z,57.25
2022-08-23T12:36:58.010Z,55.50
2022-08-23T12:40:02.342Z,54.70
2022-08-23T12:43:16.742Z,54.70
2022-08-23T12:46:42.400Z,56.10
2022-08-23T12:50:00.406Z,56.39
2022-08-23T12:53:10.323Z,56.88
2022-08-23T12:56:32.283Z,55.15
2022-08-23T13:00:16.407Z,55.58
2022-08-23T13:03:34.344Z,55.34
2022-08-23T13:06:47.815Z,54.74
2022-08-23T13:09:53.210Z,52.93
2022-08-23T13:12:56.154Z,54.05
2022-08-23T13:16:00.618Z,53.38
2022-08-23T13:19:33.639Z,50.67
2022-08-23T13:22:40.185Z,50.33
2022-08-23T13:25:43.025Z,49.51
2022-08-23T13:29:12.055Z,48.36
2022-08-23T13:32:33.561Z,48.10
2022-08-23T13:35:46.987Z,50.41
2022-08-23T13:38:49.627Z,51.64
2022-08-23T13:41:51.887Z,53.31
2022-08-23T13:44:54.880Z,52.79
2022-08-23T13:48:39.558Z,46.25
2022-08-23T13:52:18.346Z,43.58
2022-08-23T13:55:22.275Z,45.32
2022-08-23T13:58:31.120Z,47.87
2022-08-23T14:01:33.244Z,49.77
2022-08-23T14:04:35.428Z,49.95
2022-08-23T14:07:37.580Z,50.08
2022-08-23T14:10:39.858Z,49.01
2022-08-23T14:13:43.669Z,50.41
2022-08-23T14:16:45.961Z,50.60
2022-08-23T14:20:32.848Z,49.09
2022-08-23T14:23:12.043Z,50.48
2022-08-23T14:26:17.757Z,49.23
2022-08-23T14:29:22.499Z,49.58
2022-08-23T14:32:25.573Z,47.43
2022-08-23T14:35:28.015Z,48.09
2022-08-23T14:38:30.160Z,42.46
2022-08-23T14:41:32.320Z,43.80
2022-08-23T14:44:36.305Z,46.80
2022-08-23T14:47:38.716Z,47.40
2022-08-23T14:50:41.311Z,48.04
2022-08-23T14:53:43.455Z,46.67
2022-08-23T14:56:45.772Z,47.16
2022-08-23T14:59:47.937Z,47.41
2022-08-23T15:02:50.300Z,48.56
2022-08-23T15:05:53.211Z,48.66
2022-08-23T15:08:55.421Z,49.32
2022-08-23T15:15:21.823Z,48.54
2022-08-23T15:18:24.330Z,49.64
2022-08-23T15:21:27.079Z,52.42
2022-08-23T15:24:30.646Z,52.81
2022-08-23T15:27:32.774Z,52.17
2022-08-23T15:30:35.121Z,53.43
2022-08-23T15:33:37.351Z,53.82
2022-08-23T15:36:41.519Z,53.57
2022-08-23T15:39:44.055Z,53.86
2022-08-23T15:42:46.349Z,54.38
2022-08-23T15:45:48.749Z,54.29
2022-08-23T15:49:06.158Z,54.07
2022-08-23T15:52:08.311Z,54.04
2022-08-23T15:55:10.923Z,55.74
2022-08-23T15:58:20.280Z,55.70
2022-08-23T16:01:24.962Z,55.62
2022-08-23T16:04:32.572Z,55.65
2022-08-23T16:07:38.701Z,55.89
2022-08-23T16:10:40.901Z,56.67
2022-08-23T16:13:44.662Z,56.67
2022-08-23T16:16:47.020Z,56.36
2022-08-23T16:19:49.671Z,56.68
2022-08-23T16:22:52.386Z,56.85
2022-08-23T16:25:59.129Z,56.94
2022-08-23T16:29:06.818Z,57.34
2022-08-23T16:32:08.983Z,58.08
2022-08-23T16:35:11.242Z,58.21
2022-08-23T16:38:13.359Z,57.84
2022-08-23T16:41:15.718Z,58.42
2022-08-23T16:44:17.851Z,58.21
2022-08-23T16:47:20.074Z,57.82
2022-08-23T16:50:22.287Z,57.86
2022-08-23T16:53:26.920Z,57.70
2022-08-23T16:56:29.832Z,57.53
2022-08-23T16:59:32.096Z,56.78
2022-08-23T17:02:36.520Z,56.31
2022-08-23T17:05:38.978Z,56.71
2022-08-23T17:08:41.192Z,57.04
2022-08-23T17:11:43.869Z,57.38
2022-08-23T17:14:46.395Z,55.96
2022-08-23T17:17:49.367Z,55.80
2022-08-23T17:20:51.563Z,56.00
2022-08-23T17:23:53.780Z,55.71
2022-08-23T17:26:55.903Z,55.98
2022-08-23T17:29:58.070Z,56.62
2022-08-23T17:33:00.302Z,57.71
2022-08-23T17:36:03.140Z,57.67
2022-08-23T17:39:08.960Z,58.60
2022-08-23T17:42:11.075Z,58.67
2022-08-23T17:45:13.856Z,59.67
2022-08-23T17:48:17.633Z,59.64
2022-08-23T17:51:19.790Z,60.00
2022-08-23T17:54:21.902Z,60.09
2022-08-23T17:57:24.144Z,60.41
2022-08-23T18:00:26.742Z,59.71
2022-08-23T18:03:33.782Z,60.13
2022-08-23T18:06:36.519Z,60.13
2022-08-23T18:09:45.089Z,60.97
2022-08-23T18:12:52.963Z,62.14
2022-08-23T18:15:55.760Z,62.61
2022-08-23T18:18:58.230Z,63.36
2022-08-23T18:22:02.496Z,63.57
2022-08-23T18:25:08.744Z,63.54
2022-08-23T18:28:11.619Z,64.33
2022-08-23T18:31:14.989Z,63.89
2022-08-23T18:34:17.692Z,63.72
2022-08-23T18:37:21.700Z,63.88
2022-08-23T18:40:25.078Z,64.39
2022-08-23T18:43:27.280Z,65.11
2022-08-23T18:46:42.191Z,65.06
2022-08-23T18:49:44.321Z,64.55
2022-08-23T18:52:46.425Z,65.57
2022-08-23T18:55:50.067Z,64.01
2022-08-23T18:58:52.496Z,62.68
2022-08-23T19:01:55.236Z,63.67
2022-08-23T19:04:57.534Z,64.81
2022-08-23T19:07:59.633Z,65.73
2022-08-23T19:11:01.710Z,65.73
2022-08-23T19:14:05.200Z,65.68
2022-08-23T19:17:10.267Z,65.96
2022-08-23T19:20:12.390Z,66.01
2022-08-23T19:23:14.505Z,65.66
2022-08-23T19:26:18.082Z,65.30
2022-08-23T19:29:21.722Z,66.36
2022-08-23T19:32:24.007Z,67.20
2022-08-23T19:35:26.166Z,67.49
2022-08-23T19:38:29.230Z,67.54
2022-08-23T19:41:32.093Z,67.25
2022-08-23T19:44:35.320Z,67.17
2022-08-23T19:47:37.631Z,66.33
2022-08-23T19:50:40.180Z,67.81
2022-08-23T19:53:42.483Z,67.74
2022-08-23T19:56:48.981Z,67.61
2022-08-23T19:59:51.076Z,68.37
2022-08-23T20:02:53.278Z,68.39
2022-08-23T20:05:56.116Z,68.47
2022-08-23T20:08:58.582Z,68.47
2022-08-23T20:12:07.752Z,68.76
2022-08-23T20:15:12.070Z,68.39
2022-08-23T20:18:15.268Z,67.93
2022-08-23T20:21:23.459Z,67.96
2022-08-23T20:24:48.719Z,67.44
2022-08-23T20:27:48.756Z,67.67
2022-08-23T20:30:50.888Z,69.31
2022-08-23T20:33:53.114Z,69.54
2022-08-23T20:36:56.300Z,69.24
2022-08-23T20:39:58.859Z,68.47
2022-08-23T20:43:01.479Z,68.50
2022-08-23T20:46:04.077Z,66.88
2022-08-23T20:49:06.402Z,68.16
2022-08-23T20:52:08.542Z,69.09
2022-08-23T20:55:11.255Z,68.93
2022-08-23T20:58:13.326Z,69.49
2022-08-23T21:01:16.442Z,68.10
2022-08-23T21:04:18.800Z,67.28
2022-08-23T21:07:21.603Z,67.08
2022-08-23T21:10:24.110Z,66.73
2022-08-23T21:13:26.314Z,66.16
2022-08-23T21:16:28.502Z,65.76
2022-08-23T21:19:31.303Z,65.33
2022-08-23T21:22:33.459Z,66.17
2022-08-23T21:25:35.681Z,65.27
2022-08-23T21:28:37.771Z,62.35
2022-08-23T21:31:40.033Z,62.82
2022-08-23T21:34:42.164Z,61.88
2022-08-23T21:37:44.344Z,63.16
2022-08-23T21:40:46.505Z,62.44
2022-08-23T21:43:48.583Z,61.98
2022-08-23T21:46:50.667Z,63.20
2022-08-23T21:49:53.338Z,63.70
2022-08-23T21:53:04.752Z,63.21
2022-08-23T21:56:07.484Z,64.26
2022-08-23T21:59:11.485Z,64.87
2022-08-23T22:02:13.771Z,64.95
2022-08-23T22:05:15.965Z,65.17
2022-08-23T22:08:18.078Z,66.71
2022-08-23T22:11:23.621Z,66.67
2022-08-23T22:14:27.452Z,66.65
2022-08-23T22:17:33.822Z,66.44
2022-08-23T22:20:36.245Z,66.12
2022-08-23T22:23:43.305Z,64.57
2022-08-23T22:26:45.813Z,65.21
2022-08-23T22:29:47.918Z,63.97
2022-08-23T22:32:50.015Z,63.53
2022-08-23T22:35:52.827Z,64.15
2022-08-23T22:38:55.318Z,65.67
2022-08-23T22:41:57.412Z,66.35
2022-08-23T22:45:00.207Z,65.44
2022-08-23T22:48:02.529Z,64.67
2022-08-23T22:51:14.323Z,66.70
2022-08-23T22:54:16.439Z,66.02
2022-08-23T22:57:18.507Z,67.06
2022-08-23T23:00:20.754Z,67.29
2022-08-23T23:03:22.874Z,66.92
2022-08-23T23:06:25.715Z,66.12
2022-08-23T23:09:27.967Z,67.14
2022-08-23T23:12:31.444Z,68.08
2022-08-23T23:15:33.547Z,68.29
2022-08-23T23:18:35.895Z,68.91
2022-08-23T23:21:41.532Z,67.96
2022-08-23T23:24:43.650Z,68.36
2022-08-23T23:27:45.830Z,68.36
2022-08-23T23:30:51.145Z,69.13
2022-08-23T23:33:53.438Z,68.32
2022-08-23T23:36:59.015Z,68.44
2022-08-23T23:40:01.169Z,67.57
2022-08-23T23:43:03.621Z,68.73
2022-08-23T23:46:11.021Z,68.09
2022-08-23T23:49:13.156Z,67.48
2022-08-23T23:52:16.174Z,67.11
2022-08-23T23:55:19.890Z,66.53
2022-08-23T23:58:21.970Z,66.82
